sensor_id;sensor_type;location;lat;lon;timestamp;P1;durP1;ratioP1;P2;durP2;ratioP2
54555;SDS011;57291;37.520;15.106;2023-01-31T00:01:35;12.63;;;6.75;;
54555;SDS011;57291;37.520;15.106;2023-01-31T00:04:08;12.65;;;7.32;;
54555;SDS011;57291;37.520;15.106;2023-01-31T00:06:40;10.15;;;6.68;;
54555;SDS011;57291;37.520;15.106;2023-01-31T00:09:10;15.20;;;7.00;;
54555;SDS011;57291;37.520;15.106;2023-01-31T00:11:38;14.90;;;7.32;;
54555;SDS011;57291;37.520;15.106;2023-01-31T00:14:06;11.23;;;6.88;;
54555;SDS011;57291;37.520;15.106;2023-01-31T00:16:36;11.10;;;6.32;;
54555;SDS011;57291;37.520;15.106;2023-01-31T00:19:03;8.75;;;5.38;;
54555;SDS011;57291;37.520;15.106;2023-01-31T00:21:31;11.82;;;6.05;;
54555;SDS011;57291;37.520;15.106;2023-01-31T00:23:58;13.00;;;6.25;;
54555;SDS011;57291;37.520;15.106;2023-01-31T00:26:29;10.50;;;6.18;;
54555;SDS011;57291;37.520;15.106;2023-01-31T00:28:59;11.80;;;6.33;;
54555;SDS011;57291;37.520;15.106;2023-01-31T00:31:28;10.57;;;5.93;;
54555;SDS011;57291;37.520;15.106;2023-01-31T00:33:57;9.45;;;5.75;;
54555;SDS011;57291;37.520;15.106;2023-01-31T00:36:26;10.45;;;6.32;;
54555;SDS011;57291;37.520;15.106;2023-01-31T00:38:56;10.80;;;6.25;;
54555;SDS011;57291;37.520;15.106;2023-01-31T00:41:26;8.88;;;5.65;;
54555;SDS011;57291;37.520;15.106;2023-01-31T00:43:58;12.10;;;5.93;;
54555;SDS011;57291;37.520;15.106;2023-01-31T00:46:26;10.85;;;5.60;;
54555;SDS011;57291;37.520;15.106;2023-01-31T00:48:54;9.77;;;5.68;;
54555;SDS011;57291;37.520;15.106;2023-01-31T00:51:25;11.07;;;5.97;;
54555;SDS011;57291;37.520;15.106;2023-01-31T00:53:52;7.32;;;4.30;;
54555;SDS011;57291;37.520;15.106;2023-01-31T00:56:20;8.80;;;3.95;;
54555;SDS011;57291;37.520;15.106;2023-01-31T00:58:50;7.90;;;3.95;;
54555;SDS011;57291;37.520;15.106;2023-01-31T01:01:27;8.07;;;4.20;;
54555;SDS011;57291;37.520;15.106;2023-01-31T01:03:55;7.35;;;4.18;;
54555;SDS011;57291;37.520;15.106;2023-01-31T01:06:23;6.28;;;4.07;;
54555;SDS011;57291;37.520;15.106;2023-01-31T01:08:51;9.10;;;4.47;;
54555;SDS011;57291;37.520;15.106;2023-01-31T01:11:21;6.28;;;3.67;;
54555;SDS011;57291;37.520;15.106;2023-01-31T01:13:51;9.38;;;3.75;;
54555;SDS011;57291;37.520;15.106;2023-01-31T01:16:23;8.57;;;3.33;;
54555;SDS011;57291;37.520;15.106;2023-01-31T01:18:53;5.63;;;3.25;;
54555;SDS011;57291;37.520;15.106;2023-01-31T01:21:24;6.57;;;2.78;;
54555;SDS011;57291;37.520;15.106;2023-01-31T01:23:58;6.40;;;2.92;;
54555;SDS011;57291;37.520;15.106;2023-01-31T01:26:28;6.45;;;3.30;;
54555;SDS011;57291;37.520;15.106;2023-01-31T01:28:58;4.90;;;3.03;;
54555;SDS011;57291;37.520;15.106;2023-01-31T01:31:28;7.13;;;3.53;;
54555;SDS011;57291;37.520;15.106;2023-01-31T01:33:57;8.13;;;4.05;;
54555;SDS011;57291;37.520;15.106;2023-01-31T01:36:27;9.80;;;4.00;;
54555;SDS011;57291;37.520;15.106;2023-01-31T01:38:55;8.57;;;5.57;;
54555;SDS011;57291;37.520;15.106;2023-01-31T01:41:23;6.63;;;4.53;;
54555;SDS011;57291;37.520;15.106;2023-01-31T01:43:54;8.57;;;4.70;;
54555;SDS011;57291;37.520;15.106;2023-01-31T01:46:25;7.97;;;4.63;;
54555;SDS011;57291;37.520;15.106;2023-01-31T01:49:02;7.00;;;4.40;;
54555;SDS011;57291;37.520;15.106;2023-01-31T01:51:59;7.95;;;5.38;;
54555;SDS011;57291;37.520;15.106;2023-01-31T01:54:46;8.30;;;4.55;;
54555;SDS011;57291;37.520;15.106;2023-01-31T01:57:21;9.55;;;5.00;;
54555;SDS011;57291;37.520;15.106;2023-01-31T01:59:55;8.77;;;5.25;;
54555;SDS011;57291;37.520;15.106;2023-01-31T02:02:42;9.13;;;4.93;;
54555;SDS011;57291;37.520;15.106;2023-01-31T02:05:14;8.05;;;4.72;;
54555;SDS011;57291;37.520;15.106;2023-01-31T02:07:46;9.77;;;4.22;;
54555;SDS011;57291;37.520;15.106;2023-01-31T02:10:15;8.15;;;4.13;;
54555;SDS011;57291;37.520;15.106;2023-01-31T02:12:46;8.35;;;4.40;;
54555;SDS011;57291;37.520;15.106;2023-01-31T02:15:13;10.18;;;4.80;;
54555;SDS011;57291;37.520;15.106;2023-01-31T02:17:40;8.75;;;4.65;;
54555;SDS011;57291;37.520;15.106;2023-01-31T02:25:46;7.85;;;4.38;;
54555;SDS011;57291;37.520;15.106;2023-01-31T02:28:30;11.25;;;4.43;;
54555;SDS011;57291;37.520;15.106;2023-01-31T02:37:13;6.97;;;3.92;;
54555;SDS011;57291;37.520;15.106;2023-01-31T02:39:53;8.88;;;4.00;;
54555;SDS011;57291;37.520;15.106;2023-01-31T02:42:58;8.13;;;4.10;;
54555;SDS011;57291;37.520;15.106;2023-01-31T02:45:40;7.13;;;4.03;;
54555;SDS011;57291;37.520;15.106;2023-01-31T02:54:00;5.15;;;2.95;;
54555;SDS011;57291;37.520;15.106;2023-01-31T02:56:32;4.88;;;2.80;;
54555;SDS011;57291;37.520;15.106;2023-01-31T02:59:09;5.75;;;2.83;;
54555;SDS011;57291;37.520;15.106;2023-01-31T03:01:53;5.30;;;2.67;;
54555;SDS011;57291;37.520;15.106;2023-01-31T03:04:28;4.97;;;2.08;;
54555;SDS011;57291;37.520;15.106;2023-01-31T03:07:01;5.35;;;2.42;;
54555;SDS011;57291;37.520;15.106;2023-01-31T03:13:01;2.92;;;1.80;;
54555;SDS011;57291;37.520;15.106;2023-01-31T03:15:40;4.68;;;1.75;;
54555;SDS011;57291;37.520;15.106;2023-01-31T03:18:39;5.22;;;2.05;;
54555;SDS011;57291;37.520;15.106;2023-01-31T03:21:50;3.67;;;2.00;;
54555;SDS011;57291;37.520;15.106;2023-01-31T03:24:24;4.00;;;2.22;;
54555;SDS011;57291;37.520;15.106;2023-01-31T03:26:56;4.68;;;2.60;;
54555;SDS011;57291;37.520;15.106;2023-01-31T03:29:28;8.57;;;3.08;;
54555;SDS011;57291;37.520;15.106;2023-01-31T03:32:04;8.77;;;3.60;;
54555;SDS011;57291;37.520;15.106;2023-01-31T03:34:35;6.32;;;3.22;;
54555;SDS011;57291;37.520;15.106;2023-01-31T03:37:06;5.07;;;2.97;;
54555;SDS011;57291;37.520;15.106;2023-01-31T03:48:00;7.40;;;2.92;;
54555;SDS011;57291;37.520;15.106;2023-01-31T03:50:36;7.22;;;3.00;;
54555;SDS011;57291;37.520;15.106;2023-01-31T03:53:09;8.32;;;2.92;;
54555;SDS011;57291;37.520;15.106;2023-01-31T03:55:42;7.15;;;3.45;;
54555;SDS011;57291;37.520;15.106;2023-01-31T03:58:16;6.32;;;3.53;;
54555;SDS011;57291;37.520;15.106;2023-01-31T04:00:46;4.57;;;2.85;;
54555;SDS011;57291;37.520;15.106;2023-01-31T04:06:03;7.18;;;3.50;;
54555;SDS011;57291;37.520;15.106;2023-01-31T04:08:32;8.32;;;4.40;;
54555;SDS011;57291;37.520;15.106;2023-01-31T04:11:07;7.53;;;4.13;;
54555;SDS011;57291;37.520;15.106;2023-01-31T04:13:37;5.95;;;3.47;;
54555;SDS011;57291;37.520;15.106;2023-01-31T04:16:04;5.80;;;3.53;;
54555;SDS011;57291;37.520;15.106;2023-01-31T04:18:32;8.35;;;3.90;;
54555;SDS011;57291;37.520;15.106;2023-01-31T04:21:03;5.72;;;3.47;;
54555;SDS011;57291;37.520;15.106;2023-01-31T04:23:30;4.95;;;3.40;;
54555;SDS011;57291;37.520;15.106;2023-01-31T04:25:58;5.75;;;2.95;;
54555;SDS011;57291;37.520;15.106;2023-01-31T04:28:25;4.40;;;2.83;;
54555;SDS011;57291;37.520;15.106;2023-01-31T04:30:53;5.30;;;2.90;;
54555;SDS011;57291;37.520;15.106;2023-01-31T04:33:20;6.10;;;2.97;;
54555;SDS011;57291;37.520;15.106;2023-01-31T04:35:51;5.57;;;3.60;;
54555;SDS011;57291;37.520;15.106;2023-01-31T04:38:18;6.38;;;2.60;;
54555;SDS011;57291;37.520;15.106;2023-01-31T04:40:45;6.78;;;3.38;;
54555;SDS011;57291;37.520;15.106;2023-01-31T04:43:12;6.75;;;3.00;;
54555;SDS011;57291;37.520;15.106;2023-01-31T04:45:39;5.90;;;2.80;;
54555;SDS011;57291;37.520;15.106;2023-01-31T04:48:07;4.95;;;2.92;;
54555;SDS011;57291;37.520;15.106;2023-01-31T04:50:34;4.70;;;2.28;;
54555;SDS011;57291;37.520;15.106;2023-01-31T04:53:02;4.30;;;2.10;;
54555;SDS011;57291;37.520;15.106;2023-01-31T04:55:30;4.68;;;2.30;;
54555;SDS011;57291;37.520;15.106;2023-01-31T04:57:58;4.75;;;2.40;;
54555;SDS011;57291;37.520;15.106;2023-01-31T05:00:25;5.50;;;2.65;;
54555;SDS011;57291;37.520;15.106;2023-01-31T05:02:52;6.03;;;2.70;;
54555;SDS011;57291;37.520;15.106;2023-01-31T05:05:19;6.30;;;3.00;;
54555;SDS011;57291;37.520;15.106;2023-01-31T05:07:47;4.65;;;2.38;;
54555;SDS011;57291;37.520;15.106;2023-01-31T05:10:14;5.57;;;2.80;;
54555;SDS011;57291;37.520;15.106;2023-01-31T05:12:41;5.25;;;2.50;;
54555;SDS011;57291;37.520;15.106;2023-01-31T05:15:08;5.85;;;2.58;;
54555;SDS011;57291;37.520;15.106;2023-01-31T05:17:37;4.72;;;2.05;;
54555;SDS011;57291;37.520;15.106;2023-01-31T05:20:04;4.55;;;2.40;;
54555;SDS011;57291;37.520;15.106;2023-01-31T05:22:32;6.63;;;2.25;;
54555;SDS011;57291;37.520;15.106;2023-01-31T05:24:59;3.70;;;2.13;;
54555;SDS011;57291;37.520;15.106;2023-01-31T05:27:27;4.10;;;2.58;;
54555;SDS011;57291;37.520;15.106;2023-01-31T05:29:54;4.38;;;2.42;;
54555;SDS011;57291;37.520;15.106;2023-01-31T05:32:21;6.18;;;3.00;;
54555;SDS011;57291;37.520;15.106;2023-01-31T05:34:48;8.75;;;3.00;;
54555;SDS011;57291;37.520;15.106;2023-01-31T05:37:15;6.80;;;3.50;;
54555;SDS011;57291;37.520;15.106;2023-01-31T05:39:42;8.60;;;3.53;;
54555;SDS011;57291;37.520;15.106;2023-01-31T05:42:09;7.13;;;3.40;;
54555;SDS011;57291;37.520;15.106;2023-01-31T05:44:36;10.07;;;3.80;;
54555;SDS011;57291;37.520;15.106;2023-01-31T05:47:03;8.35;;;3.60;;
54555;SDS011;57291;37.520;15.106;2023-01-31T05:49:31;4.57;;;3.38;;
54555;SDS011;57291;37.520;15.106;2023-01-31T05:51:59;7.85;;;3.50;;
54555;SDS011;57291;37.520;15.106;2023-01-31T05:54:27;7.15;;;3.47;;
54555;SDS011;57291;37.520;15.106;2023-01-31T05:56:54;8.98;;;3.92;;
54555;SDS011;57291;37.520;15.106;2023-01-31T05:59:21;9.73;;;3.45;;
54555;SDS011;57291;37.520;15.106;2023-01-31T06:01:48;10.52;;;5.93;;
54555;SDS011;57291;37.520;15.106;2023-01-31T06:04:17;6.32;;;3.92;;
54555;SDS011;57291;37.520;15.106;2023-01-31T06:06:44;11.77;;;4.40;;
54555;SDS011;57291;37.520;15.106;2023-01-31T06:09:11;12.20;;;4.72;;
54555;SDS011;57291;37.520;15.106;2023-01-31T06:11:38;7.63;;;4.32;;
54555;SDS011;57291;37.520;15.106;2023-01-31T06:14:05;11.27;;;4.18;;
54555;SDS011;57291;37.520;15.106;2023-01-31T06:16:33;5.80;;;3.50;;
54555;SDS011;57291;37.520;15.106;2023-01-31T06:19:01;8.25;;;4.00;;
54555;SDS011;57291;37.520;15.106;2023-01-31T06:21:28;7.32;;;3.80;;
54555;SDS011;57291;37.520;15.106;2023-01-31T06:23:56;10.82;;;3.70;;
54555;SDS011;57291;37.520;15.106;2023-01-31T06:26:24;7.50;;;3.95;;
54555;SDS011;57291;37.520;15.106;2023-01-31T06:28:51;5.45;;;3.30;;
54555;SDS011;57291;37.520;15.106;2023-01-31T06:31:18;7.30;;;3.67;;
54555;SDS011;57291;37.520;15.106;2023-01-31T06:33:45;8.57;;;4.53;;
54555;SDS011;57291;37.520;15.106;2023-01-31T06:36:14;8.10;;;4.80;;
54555;SDS011;57291;37.520;15.106;2023-01-31T06:38:48;6.93;;;4.43;;
54555;SDS011;57291;37.520;15.106;2023-01-31T06:41:17;7.25;;;3.60;;
54555;SDS011;57291;37.520;15.106;2023-01-31T06:43:45;8.27;;;3.70;;
54555;SDS011;57291;37.520;15.106;2023-01-31T06:46:12;8.35;;;3.88;;
54555;SDS011;57291;37.520;15.106;2023-01-31T06:48:39;7.38;;;3.30;;
54555;SDS011;57291;37.520;15.106;2023-01-31T06:51:06;9.93;;;3.58;;
54555;SDS011;57291;37.520;15.106;2023-01-31T06:53:33;11.93;;;3.78;;
54555;SDS011;57291;37.520;15.106;2023-01-31T06:56:00;11.38;;;4.78;;
54555;SDS011;57291;37.520;15.106;2023-01-31T06:58:27;10.95;;;4.57;;
54555;SDS011;57291;37.520;15.106;2023-01-31T07:00:54;12.43;;;4.55;;
54555;SDS011;57291;37.520;15.106;2023-01-31T07:03:22;9.38;;;4.28;;
54555;SDS011;57291;37.520;15.106;2023-01-31T07:05:49;11.15;;;4.80;;
54555;SDS011;57291;37.520;15.106;2023-01-31T07:08:16;9.90;;;4.75;;
54555;SDS011;57291;37.520;15.106;2023-01-31T07:10:43;9.50;;;4.32;;
54555;SDS011;57291;37.520;15.106;2023-01-31T07:13:10;15.50;;;4.50;;
54555;SDS011;57291;37.520;15.106;2023-01-31T07:15:38;12.30;;;4.95;;
54555;SDS011;57291;37.520;15.106;2023-01-31T07:18:05;13.07;;;4.57;;
54555;SDS011;57291;37.520;15.106;2023-01-31T07:20:33;13.68;;;4.32;;
54555;SDS011;57291;37.520;15.106;2023-01-31T07:23:00;13.93;;;4.38;;
54555;SDS011;57291;37.520;15.106;2023-01-31T07:25:27;10.27;;;4.28;;
54555;SDS011;57291;37.520;15.106;2023-01-31T07:27:58;9.63;;;3.80;;
54555;SDS011;57291;37.520;15.106;2023-01-31T07:30:26;10.48;;;3.88;;
54555;SDS011;57291;37.520;15.106;2023-01-31T07:32:53;6.32;;;3.35;;
54555;SDS011;57291;37.520;15.106;2023-01-31T07:35:20;7.85;;;3.50;;
54555;SDS011;57291;37.520;15.106;2023-01-31T07:37:50;7.68;;;3.50;;
54555;SDS011;57291;37.520;15.106;2023-01-31T07:40:19;10.70;;;3.88;;
54555;SDS011;57291;37.520;15.106;2023-01-31T07:42:46;10.70;;;4.93;;
54555;SDS011;57291;37.520;15.106;2023-01-31T07:45:14;8.57;;;4.60;;
54555;SDS011;57291;37.520;15.106;2023-01-31T07:47:49;10.38;;;5.45;;
54555;SDS011;57291;37.520;15.106;2023-01-31T07:50:17;17.33;;;5.43;;
54555;SDS011;57291;37.520;15.106;2023-01-31T07:52:45;10.98;;;5.10;;
54555;SDS011;57291;37.520;15.106;2023-01-31T07:55:14;10.25;;;4.35;;
54555;SDS011;57291;37.520;15.106;2023-01-31T07:57:42;11.63;;;4.75;;
54555;SDS011;57291;37.520;15.106;2023-01-31T08:00:09;10.02;;;4.72;;
54555;SDS011;57291;37.520;15.106;2023-01-31T08:02:57;9.77;;;4.30;;
54555;SDS011;57291;37.520;15.106;2023-01-31T08:05:44;8.43;;;4.03;;
54555;SDS011;57291;37.520;15.106;2023-01-31T08:08:13;6.30;;;3.05;;
54555;SDS011;57291;37.520;15.106;2023-01-31T08:10:40;5.80;;;3.28;;
54555;SDS011;57291;37.520;15.106;2023-01-31T08:13:07;11.13;;;3.63;;
54555;SDS011;57291;37.520;15.106;2023-01-31T08:15:37;10.73;;;4.05;;
54555;SDS011;57291;37.520;15.106;2023-01-31T08:18:04;7.82;;;3.65;;
54555;SDS011;57291;37.520;15.106;2023-01-31T08:20:32;6.65;;;3.05;;
54555;SDS011;57291;37.520;15.106;2023-01-31T08:23:00;7.05;;;3.25;;
54555;SDS011;57291;37.520;15.106;2023-01-31T08:25:27;7.68;;;2.92;;
54555;SDS011;57291;37.520;15.106;2023-01-31T08:27:56;12.77;;;3.17;;
54555;SDS011;57291;37.520;15.106;2023-01-31T08:30:23;8.05;;;3.03;;
54555;SDS011;57291;37.520;15.106;2023-01-31T08:32:51;16.15;;;3.78;;
54555;SDS011;57291;37.520;15.106;2023-01-31T08:35:18;13.27;;;3.67;;
54555;SDS011;57291;37.520;15.106;2023-01-31T08:37:45;10.85;;;3.28;;
54555;SDS011;57291;37.520;15.106;2023-01-31T08:40:14;9.20;;;3.13;;
54555;SDS011;57291;37.520;15.106;2023-01-31T08:42:41;13.80;;;3.75;;
54555;SDS011;57291;37.520;15.106;2023-01-31T08:45:08;11.02;;;3.28;;
54555;SDS011;57291;37.520;15.106;2023-01-31T08:47:37;10.93;;;3.13;;
54555;SDS011;57291;37.520;15.106;2023-01-31T08:50:05;8.15;;;2.78;;
54555;SDS011;57291;37.520;15.106;2023-01-31T08:52:51;9.18;;;3.15;;
54555;SDS011;57291;37.520;15.106;2023-01-31T08:55:19;9.77;;;3.40;;
54555;SDS011;57291;37.520;15.106;2023-01-31T08:57:48;10.98;;;3.65;;
54555;SDS011;57291;37.520;15.106;2023-01-31T09:00:25;13.75;;;6.03;;
54555;SDS011;57291;37.520;15.106;2023-01-31T09:02:56;9.13;;;3.35;;
54555;SDS011;57291;37.520;15.106;2023-01-31T09:05:26;7.53;;;2.80;;
54555;SDS011;57291;37.520;15.106;2023-01-31T09:07:54;7.55;;;3.05;;
54555;SDS011;57291;37.520;15.106;2023-01-31T09:10:21;7.38;;;3.00;;
54555;SDS011;57291;37.520;15.106;2023-01-31T09:12:50;8.13;;;2.70;;
54555;SDS011;57291;37.520;15.106;2023-01-31T09:15:17;8.43;;;2.85;;
54555;SDS011;57291;37.520;15.106;2023-01-31T09:17:45;7.43;;;2.67;;
54555;SDS011;57291;37.520;15.106;2023-01-31T09:20:12;7.18;;;2.50;;
54555;SDS011;57291;37.520;15.106;2023-01-31T09:22:39;7.97;;;2.65;;
54555;SDS011;57291;37.520;15.106;2023-01-31T09:25:06;8.52;;;2.53;;
54555;SDS011;57291;37.520;15.106;2023-01-31T09:27:35;8.73;;;2.65;;
54555;SDS011;57291;37.520;15.106;2023-01-31T09:30:07;10.32;;;2.70;;
54555;SDS011;57291;37.520;15.106;2023-01-31T09:32:35;8.90;;;2.72;;
54555;SDS011;57291;37.520;15.106;2023-01-31T09:35:04;8.52;;;2.95;;
54555;SDS011;57291;37.520;15.106;2023-01-31T09:37:31;6.05;;;3.15;;
54555;SDS011;57291;37.520;15.106;2023-01-31T09:39:58;6.65;;;3.03;;
54555;SDS011;57291;37.520;15.106;2023-01-31T09:45:06;9.20;;;3.00;;
54555;SDS011;57291;37.520;15.106;2023-01-31T09:47:40;6.90;;;2.75;;
54555;SDS011;57291;37.520;15.106;2023-01-31T09:50:20;5.93;;;2.45;;
54555;SDS011;57291;37.520;15.106;2023-01-31T09:52:55;6.68;;;2.33;;
54555;SDS011;57291;37.520;15.106;2023-01-31T09:55:46;7.28;;;2.45;;
54555;SDS011;57291;37.520;15.106;2023-01-31T10:01:36;4.50;;;2.10;;
54555;SDS011;57291;37.520;15.106;2023-01-31T10:06:48;5.07;;;1.95;;
54555;SDS011;57291;37.520;15.106;2023-01-31T10:12:21;9.00;;;2.08;;
54555;SDS011;57291;37.520;15.106;2023-01-31T10:14:55;7.35;;;2.33;;
54555;SDS011;57291;37.520;15.106;2023-01-31T10:17:37;8.50;;;2.05;;
54555;SDS011;57291;37.520;15.106;2023-01-31T10:23:12;13.77;;;2.10;;
54555;SDS011;57291;37.520;15.106;2023-01-31T10:28:35;7.07;;;2.22;;
54555;SDS011;57291;37.520;15.106;2023-01-31T10:34:03;11.07;;;2.40;;
54555;SDS011;57291;37.520;15.106;2023-01-31T10:36:56;5.10;;;2.28;;
54555;SDS011;57291;37.520;15.106;2023-01-31T10:39:30;3.67;;;1.73;;
54555;SDS011;57291;37.520;15.106;2023-01-31T10:44:34;6.68;;;1.80;;
54555;SDS011;57291;37.520;15.106;2023-01-31T10:47:13;4.53;;;1.70;;
54555;SDS011;57291;37.520;15.106;2023-01-31T10:49:46;4.82;;;1.77;;
54555;SDS011;57291;37.520;15.106;2023-01-31T10:55:24;4.10;;;1.90;;
54555;SDS011;57291;37.520;15.106;2023-01-31T10:58:07;8.02;;;1.70;;
54555;SDS011;57291;37.520;15.106;2023-01-31T11:00:40;6.85;;;2.13;;
54555;SDS011;57291;37.520;15.106;2023-01-31T11:03:12;4.03;;;2.00;;
54555;SDS011;57291;37.520;15.106;2023-01-31T11:05:53;7.40;;;1.95;;
54555;SDS011;57291;37.520;15.106;2023-01-31T11:08:32;7.40;;;2.20;;
54555;SDS011;57291;37.520;15.106;2023-01-31T11:11:08;7.40;;;2.10;;
54555;SDS011;57291;37.520;15.106;2023-01-31T11:13:38;6.53;;;2.15;;
54555;SDS011;57291;37.520;15.106;2023-01-31T11:16:07;3.92;;;2.15;;
54555;SDS011;57291;37.520;15.106;2023-01-31T11:18:47;4.50;;;1.80;;
54555;SDS011;57291;37.520;15.106;2023-01-31T11:21:18;6.97;;;2.10;;
54555;SDS011;57291;37.520;15.106;2023-01-31T11:23:48;5.77;;;2.10;;
54555;SDS011;57291;37.520;15.106;2023-01-31T11:26:27;5.40;;;1.98;;
54555;SDS011;57291;37.520;15.106;2023-01-31T11:29:24;3.58;;;1.73;;
54555;SDS011;57291;37.520;15.106;2023-01-31T11:31:58;4.80;;;1.73;;
54555;SDS011;57291;37.520;15.106;2023-01-31T11:34:28;6.40;;;1.73;;
54555;SDS011;57291;37.520;15.106;2023-01-31T11:37:12;8.40;;;2.20;;
54555;SDS011;57291;37.520;15.106;2023-01-31T11:39:41;5.85;;;1.77;;
54555;SDS011;57291;37.520;15.106;2023-01-31T11:42:22;5.20;;;1.80;;
54555;SDS011;57291;37.520;15.106;2023-01-31T11:44:57;4.18;;;1.77;;
54555;SDS011;57291;37.520;15.106;2023-01-31T11:47:44;3.78;;;1.35;;
54555;SDS011;57291;37.520;15.106;2023-01-31T11:50:23;3.63;;;1.50;;
54555;SDS011;57291;37.520;15.106;2023-01-31T11:52:59;5.80;;;1.80;;
54555;SDS011;57291;37.520;15.106;2023-01-31T11:55:36;6.03;;;1.70;;
54555;SDS011;57291;37.520;15.106;2023-01-31T11:58:08;4.53;;;1.30;;
54555;SDS011;57291;37.520;15.106;2023-01-31T12:01:06;7.00;;;1.60;;
54555;SDS011;57291;37.520;15.106;2023-01-31T12:03:34;2.55;;;1.30;;
54555;SDS011;57291;37.520;15.106;2023-01-31T12:06:09;2.85;;;1.25;;
54555;SDS011;57291;37.520;15.106;2023-01-31T12:08:37;6.75;;;1.55;;
54555;SDS011;57291;37.520;15.106;2023-01-31T12:13:46;5.63;;;1.60;;
54555;SDS011;57291;37.520;15.106;2023-01-31T12:16:22;4.50;;;1.80;;
54555;SDS011;57291;37.520;15.106;2023-01-31T12:21:47;5.22;;;1.70;;
54555;SDS011;57291;37.520;15.106;2023-01-31T12:27:16;6.90;;;1.80;;
54555;SDS011;57291;37.520;15.106;2023-01-31T12:35:15;3.85;;;1.75;;
54555;SDS011;57291;37.520;15.106;2023-01-31T12:38:05;4.65;;;1.80;;
54555;SDS011;57291;37.520;15.106;2023-01-31T12:41:00;3.55;;;1.50;;
54555;SDS011;57291;37.520;15.106;2023-01-31T12:49:56;5.55;;;1.65;;
54555;SDS011;57291;37.520;15.106;2023-01-31T12:52:43;7.65;;;1.77;;
54555;SDS011;57291;37.520;15.106;2023-01-31T13:00:57;6.83;;;1.90;;
54555;SDS011;57291;37.520;15.106;2023-01-31T13:06:42;7.45;;;2.35;;
54555;SDS011;57291;37.520;15.106;2023-01-31T13:09:29;7.43;;;2.20;;
54555;SDS011;57291;37.520;15.106;2023-01-31T13:14:36;6.20;;;1.60;;
54555;SDS011;57291;37.520;15.106;2023-01-31T13:17:12;5.43;;;1.70;;
54555;SDS011;57291;37.520;15.106;2023-01-31T13:19:45;5.25;;;1.73;;
54555;SDS011;57291;37.520;15.106;2023-01-31T13:22:22;8.55;;;1.90;;
54555;SDS011;57291;37.520;15.106;2023-01-31T13:27:41;7.10;;;1.90;;
54555;SDS011;57291;37.520;15.106;2023-01-31T13:30:31;9.70;;;2.20;;
54555;SDS011;57291;37.520;15.106;2023-01-31T13:33:08;4.57;;;1.77;;
54555;SDS011;57291;37.520;15.106;2023-01-31T13:35:44;7.93;;;2.33;;
54555;SDS011;57291;37.520;15.106;2023-01-31T13:38:16;4.93;;;1.60;;
54555;SDS011;57291;37.520;15.106;2023-01-31T13:40:47;4.72;;;1.60;;
54555;SDS011;57291;37.520;15.106;2023-01-31T13:43:18;8.82;;;1.98;;
54555;SDS011;57291;37.520;15.106;2023-01-31T13:45:51;7.15;;;2.13;;
54555;SDS011;57291;37.520;15.106;2023-01-31T13:48:25;5.20;;;2.00;;
54555;SDS011;57291;37.520;15.106;2023-01-31T13:50:56;9.32;;;2.40;;
54555;SDS011;57291;37.520;15.106;2023-01-31T13:53:54;4.75;;;2.15;;
54555;SDS011;57291;37.520;15.106;2023-01-31T13:56:45;6.43;;;1.90;;
54555;SDS011;57291;37.520;15.106;2023-01-31T13:59:18;3.90;;;1.58;;
54555;SDS011;57291;37.520;15.106;2023-01-31T14:09:25;8.43;;;1.88;;
54555;SDS011;57291;37.520;15.106;2023-01-31T14:11:58;7.07;;;1.70;;
54555;SDS011;57291;37.520;15.106;2023-01-31T14:14:47;5.22;;;1.95;;
54555;SDS011;57291;37.520;15.106;2023-01-31T14:22:16;6.90;;;1.98;;
54555;SDS011;57291;37.520;15.106;2023-01-31T14:27:22;5.63;;;1.90;;
54555;SDS011;57291;37.520;15.106;2023-01-31T14:44:29;7.15;;;2.10;;
54555;SDS011;57291;37.520;15.106;2023-01-31T14:47:50;5.55;;;1.67;;
54555;SDS011;57291;37.520;15.106;2023-01-31T14:50:18;7.90;;;2.30;;
54555;SDS011;57291;37.520;15.106;2023-01-31T14:58:44;6.93;;;1.98;;
54555;SDS011;57291;37.520;15.106;2023-01-31T15:01:13;5.97;;;1.75;;
54555;SDS011;57291;37.520;15.106;2023-01-31T15:03:50;5.28;;;1.88;;
54555;SDS011;57291;37.520;15.106;2023-01-31T15:06:28;4.35;;;1.60;;
54555;SDS011;57291;37.520;15.106;2023-01-31T15:11:52;9.52;;;2.10;;
54555;SDS011;57291;37.520;15.106;2023-01-31T15:17:21;4.78;;;1.70;;
54555;SDS011;57291;37.520;15.106;2023-01-31T15:22:40;6.43;;;2.15;;
54555;SDS011;57291;37.520;15.106;2023-01-31T15:27:59;7.50;;;2.10;;
54555;SDS011;57291;37.520;15.106;2023-01-31T15:30:27;7.10;;;3.00;;
54555;SDS011;57291;37.520;15.106;2023-01-31T15:33:06;6.30;;;2.23;;
54555;SDS011;57291;37.520;15.106;2023-01-31T15:35:48;5.63;;;2.30;;
54555;SDS011;57291;37.520;15.106;2023-01-31T15:38:53;5.28;;;1.90;;
54555;SDS011;57291;37.520;15.106;2023-01-31T15:41:37;5.88;;;2.25;;
54555;SDS011;57291;37.520;15.106;2023-01-31T15:44:22;6.63;;;2.03;;
54555;SDS011;57291;37.520;15.106;2023-01-31T15:46:51;4.95;;;1.75;;
54555;SDS011;57291;37.520;15.106;2023-01-31T15:52:19;4.68;;;1.73;;
54555;SDS011;57291;37.520;15.106;2023-01-31T15:54:52;5.30;;;2.10;;
54555;SDS011;57291;37.520;15.106;2023-01-31T15:57:31;4.82;;;1.90;;
54555;SDS011;57291;37.520;15.106;2023-01-31T16:00:05;5.32;;;1.70;;
54555;SDS011;57291;37.520;15.106;2023-01-31T16:02:35;4.18;;;1.45;;
54555;SDS011;57291;37.520;15.106;2023-01-31T16:05:04;3.90;;;1.67;;
54555;SDS011;57291;37.520;15.106;2023-01-31T16:07:32;5.53;;;1.90;;
54555;SDS011;57291;37.520;15.106;2023-01-31T16:10:00;8.57;;;2.25;;
54555;SDS011;57291;37.520;15.106;2023-01-31T16:12:29;6.43;;;2.17;;
54555;SDS011;57291;37.520;15.106;2023-01-31T16:15:00;9.02;;;3.35;;
54555;SDS011;57291;37.520;15.106;2023-01-31T16:19:58;11.27;;;3.25;;
54555;SDS011;57291;37.520;15.106;2023-01-31T16:24:54;6.95;;;2.42;;
54555;SDS011;57291;37.520;15.106;2023-01-31T16:27:23;4.35;;;1.73;;
54555;SDS011;57291;37.520;15.106;2023-01-31T16:29:54;4.25;;;1.80;;
54555;SDS011;57291;37.520;15.106;2023-01-31T16:32:28;3.78;;;1.60;;
54555;SDS011;57291;37.520;15.106;2023-01-31T16:34:59;7.63;;;2.28;;
54555;SDS011;57291;37.520;15.106;2023-01-31T16:40:01;6.40;;;1.80;;
54555;SDS011;57291;37.520;15.106;2023-01-31T16:42:49;6.40;;;2.33;;
54555;SDS011;57291;37.520;15.106;2023-01-31T16:45:35;5.75;;;1.90;;
54555;SDS011;57291;37.520;15.106;2023-01-31T16:48:19;7.55;;;2.47;;
54555;SDS011;57291;37.520;15.106;2023-01-31T16:50:49;5.88;;;2.15;;
54555;SDS011;57291;37.520;15.106;2023-01-31T16:53:33;10.98;;;2.28;;
54555;SDS011;57291;37.520;15.106;2023-01-31T16:56:15;5.55;;;1.77;;
54555;SDS011;57291;37.520;15.106;2023-01-31T16:59:03;5.03;;;2.15;;
54555;SDS011;57291;37.520;15.106;2023-01-31T17:01:33;5.38;;;2.00;;
54555;SDS011;57291;37.520;15.106;2023-01-31T17:04:18;8.07;;;2.70;;
54555;SDS011;57291;37.520;15.106;2023-01-31T17:06:48;4.78;;;2.58;;
54555;SDS011;57291;37.520;15.106;2023-01-31T17:09:26;6.40;;;2.60;;
54555;SDS011;57291;37.520;15.106;2023-01-31T17:11:54;7.13;;;2.72;;
54555;SDS011;57291;37.520;15.106;2023-01-31T17:14:21;7.15;;;2.75;;
54555;SDS011;57291;37.520;15.106;2023-01-31T17:16:50;5.35;;;2.78;;
54555;SDS011;57291;37.520;15.106;2023-01-31T17:19:18;9.40;;;2.95;;
54555;SDS011;57291;37.520;15.106;2023-01-31T17:21:45;7.75;;;3.28;;
54555;SDS011;57291;37.520;15.106;2023-01-31T17:24:14;10.40;;;4.72;;
54555;SDS011;57291;37.520;15.106;2023-01-31T17:26:44;7.00;;;3.30;;
54555;SDS011;57291;37.520;15.106;2023-01-31T17:29:12;8.30;;;3.92;;
54555;SDS011;57291;37.520;15.106;2023-01-31T17:31:39;9.88;;;4.32;;
54555;SDS011;57291;37.520;15.106;2023-01-31T17:34:12;7.88;;;3.33;;